Time;durP1;ratioP1;P1;durP2;ratioP2;P2;SDS_P1;SDS_P2;PMS_P1;PMS_P2;Temp;Humidity;BMP_temperature;BMP_pressure;BME280_temperature;BME280_humidity;BME280_pressure;Samples;Min_cycle;Max_cycle;Signal;HPM_P1;HPM_P2
2024/02/17 00:01:11;;;;;;;30.90;13.52;;;;;;;8.66;100.00;102099.47;4983170;28;20496;-80
2024/02/17 00:03:37;;;;;;;32.40;15.65;;;;;;;8.66;100.00;102115.00;4974261;28;20080;-78
2024/02/17 00:06:02;;;;;;;25.90;13.02;;;;;;;8.66;100.00;102114.19;4987212;28;20552;-78
2024/02/17 00:08:28;;;;;;;26.25;14.35;;;;;;;8.64;100.00;102111.72;4972626;28;20129;-79
2024/02/17 00:10:53;;;;;;;32.25;14.95;;;;;;;8.67;100.00;102119.25;4971247;28;20050;-77
2024/02/17 00:13:19;;;;;;;35.78;16.13;;;;;;;8.79;100.00;102120.09;5006282;28;20041;-78
2024/02/17 00:15:46;;;;;;;32.70;14.10;;;;;;;8.72;100.00;102117.16;4973232;28;20045;-78
2024/02/17 00:18:12;;;;;;;27.85;13.73;;;;;;;8.72;100.00;102124.06;5005057;28;20097;-78
2024/02/17 00:20:37;;;;;;;33.50;14.98;;;;;;;8.70;100.00;102124.22;5005351;28;20034;-78
2024/02/17 00:23:03;;;;;;;34.17;15.82;;;;;;;8.72;100.00;102127.50;4985825;28;20033;-77
2024/02/17 00:25:28;;;;;;;32.80;14.98;;;;;;;8.75;100.00;102129.84;4988121;28;20117;-78
2024/02/17 00:27:54;;;;;;;30.58;15.82;;;;;;;8.70;100.00;102136.28;4975162;28;20045;-77
2024/02/17 00:30:20;;;;;;;35.15;16.25;;;;;;;8.80;100.00;102128.69;4970127;28;20030;-77
2024/02/17 00:32:46;;;;;;;33.22;15.55;;;;;;;8.81;100.00;102132.94;5004654;28;20048;-78
2024/02/17 00:35:12;;;;;;;38.80;16.30;;;;;;;8.80;100.00;102136.44;5006808;28;20033;-78
2024/02/17 00:37:37;;;;;;;38.65;15.85;;;;;;;8.79;100.00;102140.81;4987412;28;20160;-78
2024/02/17 00:40:06;;;;;;;40.17;16.20;;;;;;;8.75;100.00;102139.38;5006194;28;20029;-77
2024/02/17 00:42:31;;;;;;;41.65;17.40;;;;;;;8.80;100.00;102142.47;4986861;28;20460;-78
2024/02/17 00:44:56;;;;;;;35.67;16.25;;;;;;;8.82;100.00;102145.75;4986152;28;20022;-77
2024/02/17 00:47:22;;;;;;;37.70;17.42;;;;;;;8.83;100.00;102155.16;4985225;28;20046;-77
2024/02/17 00:49:47;;;;;;;36.20;15.55;;;;;;;8.79;100.00;102145.97;4974904;28;20025;-78
2024/02/17 00:52:14;;;;;;;41.08;17.50;;;;;;;8.87;100.00;102148.00;4973542;28;20065;-77
2024/02/17 00:54:39;;;;;;;35.70;17.05;;;;;;;8.88;100.00;102157.44;5006025;28;20034;-77
2024/02/17 00:57:05;;;;;;;31.70;15.35;;;;;;;8.85;100.00;102152.47;4985027;28;20504;-78
2024/02/17 00:59:30;;;;;;;39.50;15.85;;;;;;;8.88;100.00;102153.06;4988755;28;20038;-77
2024/02/17 01:01:57;;;;;;;35.92;17.73;;;;;;;8.85;100.00;102158.44;4987131;28;20452;-78
2024/02/17 01:04:23;;;;;;;36.50;17.10;;;;;;;8.81;100.00;102161.38;5005245;28;20034;-77
2024/02/17 01:06:48;;;;;;;33.47;17.50;;;;;;;8.80;100.00;102159.72;5002100;28;20095;-77
2024/02/17 01:09:16;;;;;;;39.00;18.83;;;;;;;8.74;100.00;102161.84;5004340;28;20336;-79
2024/02/17 01:11:42;;;;;;;43.60;17.98;;;;;;;8.74;100.00;102167.00;4968846;28;20087;-78
2024/02/17 01:14:07;;;;;;;38.30;17.13;;;;;;;8.80;100.00;102164.91;4988718;28;20018;-78
2024/02/17 01:16:33;;;;;;;40.58;18.63;;;;;;;8.91;100.00;102168.38;4987448;28;20037;-78
2024/02/17 01:18:58;;;;;;;38.88;18.10;;;;;;;8.86;100.00;102161.88;4987052;28;20599;-78
2024/02/17 01:21:24;;;;;;;39.95;18.92;;;;;;;8.87;100.00;102166.97;4987658;28;20397;-78
2024/02/17 01:23:49;;;;;;;36.63;17.10;;;;;;;8.81;100.00;102163.97;5003404;28;20055;-78
2024/02/17 01:26:15;;;;;;;42.15;18.40;;;;;;;8.84;100.00;102174.13;4973506;28;20042;-77
2024/02/17 01:28:40;;;;;;;44.45;18.58;;;;;;;8.82;100.00;102168.22;4973919;28;20033;-77
2024/02/17 01:31:06;;;;;;;40.55;18.48;;;;;;;8.80;100.00;102170.91;4985951;28;20646;-77
2024/02/17 01:33:31;;;;;;;38.72;17.88;;;;;;;8.81;100.00;102180.31;4989970;28;20038;-78
2024/02/17 01:35:57;;;;;;;42.53;18.63;;;;;;;8.82;100.00;102173.41;5000169;28;20042;-78
2024/02/17 01:38:22;;;;;;;37.83;17.77;;;;;;;8.82;100.00;102184.56;5003067;28;20033;-78
2024/02/17 01:40:48;;;;;;;33.13;17.40;;;;;;;8.75;100.00;102180.75;4982033;28;20097;-78
2024/02/17 01:43:14;;;;;;;36.35;17.83;;;;;;;8.79;100.00;102181.38;4986630;28;20477;-78
2024/02/17 01:45:39;;;;;;;46.75;18.02;;;;;;;8.80;100.00;102185.59;4998039;28;20041;-78
2024/02/17 01:48:05;;;;;;;37.42;17.67;;;;;;;8.82;100.00;102194.91;4987323;28;20046;-77
2024/02/17 01:50:31;;;;;;;36.95;18.13;;;;;;;8.88;100.00;102194.47;4984773;28;20050;-78
2024/02/17 01:52:58;;;;;;;45.78;20.63;;;;;;;8.94;100.00;102190.59;4986915;28;20041;-77
2024/02/17 01:55:25;;;;;;;41.38;17.52;;;;;;;8.91;100.00;102196.84;4981928;28;20105;-78
2024/02/17 01:57:51;;;;;;;39.92;18.35;;;;;;;8.86;100.00;102201.50;5004451;28;20105;-78
2024/02/17 02:00:18;;;;;;;41.75;19.08;;;;;;;8.87;100.00;102197.16;5003337;28;20029;-77
2024/02/17 02:02:47;;;;;;;35.53;17.67;;;;;;;8.84;100.00;102202.56;5005220;28;20070;-77
2024/02/17 02:05:13;;;;;;;37.38;17.90;;;;;;;8.83;100.00;102199.13;4991121;28;20044;-78
2024/02/17 02:07:39;;;;;;;36.67;17.23;;;;;;;8.92;100.00;102203.66;4993821;28;20041;-77
2024/02/17 02:10:05;;;;;;;37.78;18.90;;;;;;;8.92;100.00;102206.22;5011592;28;20034;-77
2024/02/17 02:12:31;;;;;;;36.70;17.30;;;;;;;8.90;100.00;102208.09;4989639;28;20034;-77
2024/02/17 02:15:03;;;;;;;38.58;17.13;;;;;;;8.90;100.00;102209.88;5010742;28;20053;-78
2024/02/17 02:17:28;;;;;;;45.58;19.17;;;;;;;8.82;100.00;102214.78;4990551;28;20038;-77
2024/02/17 02:19:54;;;;;;;34.10;18.30;;;;;;;8.79;100.00;102213.22;4977823;28;20068;-78
2024/02/17 02:22:20;;;;;;;43.10;18.58;;;;;;;8.87;100.00;102215.25;5008028;28;20034;-77
2024/02/17 02:24:48;;;;;;;35.45;16.15;;;;;;;8.88;100.00;102215.16;5008443;28;20045;-77
2024/02/17 02:27:13;;;;;;;38.42;16.75;;;;;;;8.87;100.00;102210.09;4990794;28;20690;-78
2024/02/17 02:29:47;;;;;;;40.63;17.75;;;;;;;8.90;100.00;102222.81;4992375;28;20030;-77
2024/02/17 02:32:12;;;;;;;34.20;17.42;;;;;;;8.83;100.00;102216.41;5008995;28;20135;-78
2024/02/17 02:34:38;;;;;;;43.10;18.77;;;;;;;8.91;100.00;102219.28;4976233;28;20022;-78
2024/02/17 02:37:03;;;;;;;37.28;17.95;;;;;;;8.87;100.00;102225.59;5008495;28;20042;-78
2024/02/17 02:39:28;;;;;;;46.83;18.05;;;;;;;8.86;100.00;102229.13;4977736;28;20026;-78
2024/02/17 02:41:54;;;;;;;32.03;16.27;;;;;;;8.77;100.00;102233.19;5004883;28;20476;-79
2024/02/17 02:44:19;;;;;;;36.60;16.00;;;;;;;8.83;100.00;102231.94;5004540;28;20038;-77
2024/02/17 02:46:45;;;;;;;37.92;16.63;;;;;;;8.84;100.00;102239.59;4992174;28;20053;-78
2024/02/17 02:49:10;;;;;;;41.42;16.40;;;;;;;8.88;100.00;102240.19;5012356;28;20509;-78
2024/02/17 02:51:36;;;;;;;36.60;17.38;;;;;;;8.91;100.00;102238.22;5007681;28;20053;-77
2024/02/17 02:54:01;;;;;;;36.38;16.48;;;;;;;8.85;100.00;102233.47;4978110;28;20092;-77
2024/02/17 02:56:27;;;;;;;40.25;17.13;;;;;;;8.87;100.00;102244.56;4987902;28;20049;-77
2024/02/17 02:58:52;;;;;;;36.25;16.50;;;;;;;8.92;100.00;102250.22;4990692;28;20089;-77
2024/02/17 03:01:17;;;;;;;38.13;16.08;;;;;;;8.92;100.00;102251.97;5002213;28;20041;-77
2024/02/17 03:03:46;;;;;;;42.33;17.42;;;;;;;8.90;100.00;102253.84;4972265;28;20039;-77
2024/02/17 03:06:12;;;;;;;36.05;15.68;;;;;;;8.83;100.00;102253.44;4972242;28;20042;-77
2024/02/17 03:08:37;;;;;;;35.78;15.65;;;;;;;8.83;100.00;102260.38;4992795;28;20038;-77
2024/02/17 03:11:03;;;;;;;31.75;15.15;;;;;;;8.80;100.00;102260.59;4988458;28;20049;-77
2024/02/17 03:13:28;;;;;;;33.55;16.40;;;;;;;8.74;100.00;102265.28;4987538;28;20041;-76
2024/02/17 03:15:54;;;;;;;38.35;15.45;;;;;;;8.86;100.00;102267.94;4974926;28;21897;-78
2024/02/17 03:18:19;;;;;;;37.17;16.40;;;;;;;8.76;100.00;102265.19;4990832;28;20041;-78
2024/02/17 03:20:45;;;;;;;39.58;16.92;;;;;;;8.84;100.00;102272.41;4973678;28;20560;-77
2024/02/17 03:23:10;;;;;;;40.15;16.30;;;;;;;8.86;100.00;102262.78;5007925;28;20515;-77
2024/02/17 03:25:36;;;;;;;35.70;15.93;;;;;;;8.81;100.00;102276.00;5008972;28;20409;-77
2024/02/17 03:28:01;;;;;;;34.40;15.20;;;;;;;8.76;100.00;102268.59;4992045;28;20081;-77
2024/02/17 03:30:27;;;;;;;39.00;16.05;;;;;;;8.80;100.00;102278.69;4989852;28;20045;-77
2024/02/17 03:32:52;;;;;;;38.40;16.05;;;;;;;8.82;100.00;102285.44;4988257;28;20037;-77
2024/02/17 03:35:18;;;;;;;35.33;15.48;;;;;;;8.80;100.00;102281.28;4979774;28;20048;-77
2024/02/17 03:37:43;;;;;;;35.38;14.55;;;;;;;8.73;100.00;102286.09;4991033;28;20029;-77
2024/02/17 03:40:09;;;;;;;35.63;15.13;;;;;;;8.79;100.00;102290.81;4989489;28;20021;-77
2024/02/17 03:42:35;;;;;;;36.33;16.33;;;;;;;8.95;100.00;102299.16;5002826;28;20046;-78
2024/02/17 03:45:00;;;;;;;36.78;15.90;;;;;;;8.82;100.00;102300.97;4984858;28;20045;-77
2024/02/17 03:47:25;;;;;;;34.95;15.93;;;;;;;8.76;100.00;102302.22;4970876;28;20057;-78
2024/02/17 03:49:51;;;;;;;42.70;15.38;;;;;;;8.71;100.00;102301.69;4990657;28;20065;-77
2024/02/17 03:52:17;;;;;;;38.70;15.70;;;;;;;8.73;100.00;102315.34;5008900;28;20089;-78
2024/02/17 03:54:42;;;;;;;48.30;16.88;;;;;;;8.76;100.00;102314.34;4988977;28;21871;-78
2024/02/17 03:57:08;;;;;;;38.63;15.18;;;;;;;8.68;100.00;102317.44;5007459;28;20053;-77
2024/02/17 03:59:34;;;;;;;37.42;15.95;;;;;;;8.70;100.00;102318.16;4991634;28;20029;-77
2024/02/17 04:01:59;;;;;;;32.00;15.38;;;;;;;8.74;100.00;102324.78;4988665;28;20042;-77
2024/02/17 04:04:25;;;;;;;32.78;14.85;;;;;;;8.74;100.00;102321.38;4975593;28;20041;-78
2024/02/17 04:06:51;;;;;;;34.22;14.93;;;;;;;8.82;100.00;102326.81;4971399;28;20053;-77
2024/02/17 04:09:16;;;;;;;29.02;14.80;;;;;;;8.91;100.00;102333.94;5003811;28;20042;-77
2024/02/17 04:11:42;;;;;;;33.50;15.70;;;;;;;8.83;100.00;102341.41;4988072;28;20041;-78
2024/02/17 04:14:07;;;;;;;35.90;15.05;;;;;;;8.74;100.00;102337.72;4987891;28;20034;-77
2024/02/17 04:16:33;;;;;;;33.97;14.73;;;;;;;8.73;100.00;102341.22;4992664;28;20041;-79
2024/02/17 04:18:59;;;;;;;31.30;14.15;;;;;;;8.74;100.00;102345.47;4990208;28;20039;-77
2024/02/17 04:21:24;;;;;;;35.72;15.68;;;;;;;8.72;100.00;102356.84;4975408;28;20521;-78
2024/02/17 04:23:50;;;;;;;36.20;15.70;;;;;;;8.75;100.00;102349.69;4990904;28;21311;-77
2024/02/17 04:26:15;;;;;;;31.02;14.65;;;;;;;8.83;100.00;102359.50;5006795;28;20054;-78
2024/02/17 04:28:41;;;;;;;33.55;14.73;;;;;;;8.74;100.00;102355.00;4995084;28;20037;-78
2024/02/17 04:31:07;;;;;;;32.30;14.88;;;;;;;8.74;100.00;102358.41;5004207;28;20038;-78
2024/02/17 04:33:39;;;;;;;32.25;14.10;;;;;;;8.75;100.00;102359.22;5008080;28;20030;-78
2024/02/17 04:36:06;;;;;;;33.33;13.73;;;;;;;8.73;100.00;102359.31;4986715;28;20049;-77
2024/02/17 04:38:31;;;;;;;33.78;13.73;;;;;;;8.73;100.00;102364.50;4990698;28;20612;-77
2024/02/17 04:40:56;;;;;;;28.23;14.18;;;;;;;8.67;100.00;102371.84;5005231;28;20034;-77
2024/02/17 04:43:22;;;;;;;29.88;14.20;;;;;;;8.69;100.00;102373.41;4985467;28;20477;-77
2024/02/17 04:45:47;;;;;;;34.65;14.25;;;;;;;8.80;100.00;102383.00;5000346;28;20099;-77
2024/02/17 04:48:13;;;;;;;32.45;13.20;;;;;;;8.75;100.00;102379.91;4987633;28;20018;-77
2024/02/17 04:50:38;;;;;;;27.77;14.10;;;;;;;8.82;100.00;102380.31;5003404;28;20049;-77
2024/02/17 04:53:04;;;;;;;30.80;14.52;;;;;;;8.75;100.00;102388.50;5005577;28;20025;-78
2024/02/17 04:55:30;;;;;;;33.63;14.18;;;;;;;8.74;100.00;102391.19;4975523;28;20046;-77
2024/02/17 04:57:56;;;;;;;32.67;13.48;;;;;;;8.71;100.00;102386.22;4991194;28;20033;-77
2024/02/17 05:00:22;;;;;;;27.40;13.88;;;;;;;8.69;100.00;102394.09;5007349;28;20113;-77
2024/02/17 05:02:48;;;;;;;30.17;13.75;;;;;;;8.67;100.00;102402.91;4991237;28;20108;-77
2024/02/17 05:05:16;;;;;;;31.10;13.95;;;;;;;8.65;100.00;102408.16;5005463;28;20033;-77
2024/02/17 05:07:42;;;;;;;33.20;12.95;;;;;;;8.64;100.00;102400.50;4978688;28;20029;-77
2024/02/17 05:10:08;;;;;;;31.80;13.95;;;;;;;8.60;100.00;102402.47;4987392;28;20454;-77
2024/02/17 05:12:34;;;;;;;28.52;14.10;;;;;;;8.62;100.00;102402.38;4988469;28;20053;-78
2024/02/17 05:15:01;;;;;;;33.75;15.07;;;;;;;8.61;100.00;102411.03;4972576;28;20033;-77
2024/02/17 05:17:27;;;;;;;41.05;14.82;;;;;;;8.64;100.00;102410.84;4986395;28;20082;-77
2024/02/17 05:19:52;;;;;;;34.53;14.98;;;;;;;8.60;100.00;102412.81;5007587;28;20030;-77
2024/02/17 05:22:18;;;;;;;28.77;13.02;;;;;;;8.60;100.00;102414.56;5003252;28;20042;-77
2024/02/17 05:24:44;;;;;;;30.98;14.35;;;;;;;8.68;100.00;102415.72;4990309;28;20037;-77
2024/02/17 05:27:09;;;;;;;30.80;13.75;;;;;;;8.61;100.00;102419.66;4999926;28;20043;-77
2024/02/17 05:29:35;;;;;;;41.88;14.70;;;;;;;8.65;100.00;102425.44;4994657;28;20103;-77
2024/02/17 05:32:00;;;;;;;28.90;13.60;;;;;;;8.56;100.00;102426.88;5005341;28;20037;-77
2024/02/17 05:34:26;;;;;;;33.08;14.00;;;;;;;8.58;100.00;102435.34;4988614;28;20040;-77
2024/02/17 05:36:51;;;;;;;38.33;15.75;;;;;;;8.55;100.00;102439.00;4991330;28;20092;-78
2024/02/17 05:39:17;;;;;;;31.42;14.35;;;;;;;8.56;100.00;102448.38;4978193;28;20040;-77
2024/02/17 05:41:43;;;;;;;29.25;13.43;;;;;;;8.56;100.00;102442.41;4988194;28;20030;-77
2024/02/17 05:44:08;;;;;;;30.02;13.52;;;;;;;8.52;100.00;102441.78;4991341;28;20033;-78
2024/02/17 05:46:33;;;;;;;31.27;13.85;;;;;;;8.67;100.00;102452.84;4973711;28;20034;-77
2024/02/17 05:48:59;;;;;;;36.00;14.23;;;;;;;8.60;100.00;102446.44;5010006;28;20567;-77
2024/02/17 05:51:24;;;;;;;31.73;12.93;;;;;;;8.70;100.00;102449.22;5006213;28;20030;-77
2024/02/17 05:53:50;;;;;;;29.08;12.68;;;;;;;8.55;100.00;102453.66;5010377;28;20389;-77
2024/02/17 05:56:16;;;;;;;36.25;13.60;;;;;;;8.67;100.00;102452.03;4990488;28;20069;-77
2024/02/17 05:58:42;;;;;;;28.30;13.48;;;;;;;8.57;100.00;102459.59;5007827;28;20038;-77
2024/02/17 06:01:07;;;;;;;34.05;13.23;;;;;;;8.60;100.00;102458.53;4988093;28;20034;-77
2024/02/17 06:03:33;;;;;;;31.08;12.75;;;;;;;8.55;100.00;102459.69;5009695;28;20038;-77
2024/02/17 06:05:58;;;;;;;24.85;12.48;;;;;;;8.51;100.00;102472.91;5006873;28;20044;-78
2024/02/17 06:08:24;;;;;;;28.05;12.90;;;;;;;8.48;100.00;102471.34;5008126;28;20036;-77
2024/02/17 06:10:49;;;;;;;38.90;14.00;;;;;;;8.56;100.00;102473.44;4993938;28;20584;-78
2024/02/17 06:13:15;;;;;;;25.45;12.82;;;;;;;8.48;100.00;102476.53;4993592;28;20030;-77
2024/02/17 06:15:43;;;;;;;28.48;12.40;;;;;;;8.57;100.00;102480.25;4973980;28;20038;-77
2024/02/17 06:21:11;;;;;;;31.80;12.48;;;;;;;8.56;100.00;102489.75;5004013;28;20133;-78
2024/02/17 06:23:37;;;;;;;25.05;12.38;;;;;;;8.54;100.00;102488.22;5009517;28;20076;-77
2024/02/17 06:26:03;;;;;;;36.88;12.85;;;;;;;8.52;100.00;102487.50;4990800;28;20527;-77
2024/02/17 06:28:28;;;;;;;33.88;13.60;;;;;;;8.51;100.00;102489.25;4991607;28;20147;-77
2024/02/17 06:30:54;;;;;;;38.55;13.93;;;;;;;8.54;100.00;102491.63;5006610;28;20038;-77
2024/02/17 06:33:20;;;;;;;29.33;13.50;;;;;;;8.46;100.00;102493.91;5008516;28;20037;-77
2024/02/17 06:35:46;;;;;;;32.13;13.02;;;;;;;8.48;100.00;102498.97;4975175;28;20096;-77
2024/02/17 06:38:11;;;;;;;25.58;11.85;;;;;;;8.41;100.00;102498.50;4993166;28;20041;-77
2024/02/17 06:40:37;;;;;;;30.90;13.25;;;;;;;8.51;100.00;102498.75;4990489;28;20041;-77
2024/02/17 06:43:03;;;;;;;35.72;12.75;;;;;;;8.52;100.00;102509.00;5009100;28;20444;-77
2024/02/17 06:45:29;;;;;;;32.72;13.05;;;;;;;8.43;100.00;102512.19;4989107;28;20064;-78
2024/02/17 06:47:54;;;;;;;26.50;12.82;;;;;;;8.45;100.00;102522.44;4994588;28;20111;-77
2024/02/17 06:50:20;;;;;;;31.95;13.07;;;;;;;8.57;100.00;102517.28;5006828;28;20417;-77
2024/02/17 06:52:45;;;;;;;32.15;12.35;;;;;;;8.61;100.00;102527.41;4992792;28;20063;-77
2024/02/17 06:55:11;;;;;;;26.05;12.73;;;;;;;8.58;100.00;102534.44;5008542;28;20608;-77
2024/02/17 06:57:37;;;;;;;25.65;12.27;;;;;;;8.49;100.00;102534.22;4989485;28;20622;-77
2024/02/17 07:00:03;;;;;;;24.70;12.18;;;;;;;8.55;100.00;102538.97;4974939;28;20033;-77
2024/02/17 07:02:30;;;;;;;34.38;14.27;;;;;;;8.48;100.00;102542.91;4990782;28;20088;-77
2024/02/17 07:04:55;;;;;;;25.55;13.07;;;;;;;8.50;100.00;102544.47;4993345;28;20125;-77
2024/02/17 07:07:23;;;;;;;27.13;12.63;;;;;;;8.62;100.00;102554.94;4992324;28;20674;-77
2024/02/17 07:09:48;;;;;;;30.27;12.80;;;;;;;8.58;100.00;102549.13;5008803;28;20072;-77
2024/02/17 07:12:14;;;;;;;32.65;12.48;;;;;;;8.66;100.00;102561.56;4986558;28;20026;-77
2024/02/17 07:14:39;;;;;;;26.90;12.80;;;;;;;8.74;100.00;102564.50;4997067;28;20635;-78
2024/02/17 07:17:04;;;;;;;34.28;12.82;;;;;;;8.66;100.00;102567.56;4993625;28;20045;-77
2024/02/17 07:19:30;;;;;;;25.67;11.85;;;;;;;8.66;100.00;102567.56;5006497;28;20489;-77
2024/02/17 07:21:56;;;;;;;35.30;12.68;;;;;;;8.62;100.00;102573.03;5007946;28;20120;-77
2024/02/17 07:24:22;;;;;;;36.90;13.95;;;;;;;8.64;100.00;102574.59;4993219;28;20613;-79
2024/02/17 07:26:50;;;;;;;30.52;12.57;;;;;;;8.62;100.00;102581.63;4975945;28;20068;-77
2024/02/17 07:29:16;;;;;;;27.10;11.77;;;;;;;8.63;100.00;102583.28;4992289;28;20275;-78
2024/02/17 07:31:42;;;;;;;25.70;11.60;;;;;;;8.59;100.00;102587.00;5009586;28;20044;-77
2024/02/17 07:34:08;;;;;;;31.80;12.07;;;;;;;8.70;100.00;102600.06;5015610;28;20049;-78
2024/02/17 07:36:34;;;;;;;49.92;14.75;;;;;;;8.68;100.00;102593.31;4989068;28;20132;-78
2024/02/17 07:39:00;;;;;;;29.85;13.23;;;;;;;8.69;100.00;102602.75;5011625;28;20118;-77
2024/02/17 07:41:26;;;;;;;29.30;11.27;;;;;;;8.67;100.00;102594.28;5007231;28;20041;-78
2024/02/17 07:43:52;;;;;;;27.67;10.82;;;;;;;8.59;100.00;102615.44;5011268;28;20484;-78
2024/02/17 07:46:19;;;;;;;27.08;11.05;;;;;;;8.61;100.00;102613.59;4974208;28;20037;-78
2024/02/17 07:48:45;;;;;;;30.25;11.32;;;;;;;8.61;100.00;102615.31;5008126;28;20026;-78
2024/02/17 07:51:12;;;;;;;23.48;10.93;;;;;;;8.62;100.00;102627.34;4988447;28;20046;-79
2024/02/17 07:53:37;;;;;;;31.08;11.40;;;;;;;8.79;100.00;102621.09;4988811;28;20026;-77
2024/02/17 07:56:04;;;;;;;23.98;11.90;;;;;;;8.82;100.00;102631.25;4974351;28;20539;-78
2024/02/17 07:58:29;;;;;;;29.98;11.55;;;;;;;8.73;100.00;102636.06;5010522;28;20480;-78
2024/02/17 08:00:55;;;;;;;29.27;11.05;;;;;;;8.74;100.00;102639.50;4989449;28;20089;-78
2024/02/17 08:03:20;;;;;;;30.65;10.85;;;;;;;8.72;100.00;102647.34;4998106;28;20033;-77
2024/02/17 08:05:46;;;;;;;27.42;10.98;;;;;;;8.74;100.00;102649.84;5007788;28;20045;-78
2024/02/17 08:08:11;;;;;;;26.17;10.77;;;;;;;8.68;100.00;102658.84;4988900;28;20037;-77
2024/02/17 08:10:36;;;;;;;31.50;11.65;;;;;;;8.69;100.00;102660.47;4969718;28;20045;-78
2024/02/17 08:13:02;;;;;;;22.88;10.50;;;;;;;8.70;100.00;102662.16;4989576;28;20053;-77
2024/02/17 08:15:27;;;;;;;24.77;12.15;;;;;;;8.80;100.00;102664.13;4988538;28;20050;-77
2024/02/17 08:17:53;;;;;;;21.10;9.48;;;;;;;8.70;100.00;102666.47;4986401;28;20033;-77
2024/02/17 08:20:18;;;;;;;24.52;10.80;;;;;;;8.77;100.00;102672.91;4989310;28;20432;-77
2024/02/17 08:22:44;;;;;;;27.88;11.55;;;;;;;8.74;100.00;102670.53;5009798;28;20403;-78
2024/02/17 08:25:09;;;;;;;23.05;10.50;;;;;;;8.82;100.00;102675.22;4991323;28;20022;-78
2024/02/17 08:27:38;;;;;;;25.15;10.98;;;;;;;8.85;100.00;102675.00;4991413;28;20057;-77
2024/02/17 08:30:04;;;;;;;26.45;10.43;;;;;;;8.82;100.00;102685.56;4976631;28;20168;-78
2024/02/17 08:32:32;;;;;;;25.48;9.45;;;;;;;8.83;100.00;102692.38;4999217;28;20065;-77
2024/02/17 08:34:57;;;;;;;25.23;11.02;;;;;;;8.84;100.00;102691.47;5001365;28;20033;-78
2024/02/17 08:37:23;;;;;;;27.85;10.90;;;;;;;8.92;100.00;102692.63;5005520;28;20049;-78
2024/02/17 08:39:49;;;;;;;27.63;10.30;;;;;;;9.00;100.00;102688.72;4988207;28;20507;-77
2024/02/17 08:42:14;;;;;;;24.42;11.02;;;;;;;9.02;100.00;102689.44;4984563;28;20485;-77
2024/02/17 08:44:40;;;;;;;21.40;10.18;;;;;;;9.04;100.00;102690.16;5006898;28;20037;-77
2024/02/17 08:47:05;;;;;;;25.42;10.75;;;;;;;8.97;100.00;102694.91;4987781;28;20041;-77
2024/02/17 08:49:31;;;;;;;24.30;9.68;;;;;;;9.06;100.00;102704.69;4987841;28;20125;-77
2024/02/17 08:51:57;;;;;;;33.45;11.02;;;;;;;9.08;100.00;102710.59;4970425;28;20038;-77
2024/02/17 08:54:25;;;;;;;23.50;10.57;;;;;;;9.06;100.00;102715.03;4994626;28;20485;-77
2024/02/17 08:56:51;;;;;;;31.70;11.35;;;;;;;9.15;100.00;102719.63;5004977;28;20105;-77
2024/02/17 08:59:17;;;;;;;26.10;10.82;;;;;;;9.19;100.00;102715.03;4989474;28;20057;-77
2024/02/17 09:01:42;;;;;;;32.20;10.60;;;;;;;9.31;100.00;102728.97;5006856;28;20044;-77
2024/02/17 09:04:08;;;;;;;25.88;11.35;;;;;;;9.20;100.00;102732.25;4990090;28;20048;-77
2024/02/17 09:06:33;;;;;;;21.90;9.73;;;;;;;9.24;100.00;102743.22;4986507;28;20044;-78
2024/02/17 09:08:59;;;;;;;21.25;9.65;;;;;;;9.15;100.00;102737.72;4981398;28;20022;-78
2024/02/17 09:11:24;;;;;;;29.85;10.65;;;;;;;9.23;100.00;102736.38;4975926;28;20037;-77
2024/02/17 09:13:50;;;;;;;24.83;10.90;;;;;;;9.21;100.00;102738.25;4989625;28;20393;-77
2024/02/17 09:16:16;;;;;;;29.98;11.27;;;;;;;9.33;100.00;102746.03;4987731;28;20065;-76
2024/02/17 09:18:42;;;;;;;28.65;11.75;;;;;;;9.28;100.00;102750.69;4987512;28;20077;-78
2024/02/17 09:21:08;;;;;;;30.70;10.63;;;;;;;9.32;100.00;102748.72;4986475;28;20034;-78
2024/02/17 09:23:34;;;;;;;26.20;9.95;;;;;;;9.24;100.00;102757.00;4990360;28;20096;-77
2024/02/17 09:26:00;;;;;;;30.30;12.80;;;;;;;9.35;100.00;102764.91;4985746;28;20531;-77
2024/02/17 09:28:25;;;;;;;30.77;10.95;;;;;;;9.35;100.00;102764.06;4989746;28;20034;-77
2024/02/17 09:30:51;;;;;;;21.02;10.10;;;;;;;9.41;100.00;102761.06;4982790;28;20037;-77
2024/02/17 09:33:19;;;;;;;25.08;9.98;;;;;;;9.35;100.00;102770.06;5011463;28;20034;-78
2024/02/17 09:35:45;;;;;;;26.02;10.10;;;;;;;9.40;100.00;102768.94;4988274;28;20061;-78
2024/02/17 09:38:10;;;;;;;28.30;10.13;;;;;;;9.46;100.00;102781.50;4993980;28;20034;-77
2024/02/17 09:40:36;;;;;;;32.45;10.75;;;;;;;9.46;100.00;102786.69;5003186;28;20038;-78
2024/02/17 09:43:01;;;;;;;28.08;10.48;;;;;;;9.41;100.00;102783.56;4974190;28;20030;-78
2024/02/17 09:45:27;;;;;;;31.45;11.20;;;;;;;9.51;100.00;102787.19;4988517;28;20052;-77
2024/02/17 09:47:54;;;;;;;24.17;10.05;;;;;;;9.57;100.00;102786.81;5005418;28;20031;-77
2024/02/17 09:50:21;;;;;;;28.10;10.20;;;;;;;9.46;100.00;102791.88;4983957;28;20029;-77
2024/02/17 09:52:48;;;;;;;26.15;10.05;;;;;;;9.48;100.00;102787.41;5003794;28;20169;-77
2024/02/17 09:55:15;;;;;;;24.70;10.35;;;;;;;9.48;100.00;102790.81;4970751;28;20485;-78
2024/02/17 09:57:41;;;;;;;27.23;11.52;;;;;;;9.52;100.00;102792.28;4988990;28;20048;-78
2024/02/17 10:00:09;;;;;;;27.15;11.35;;;;;;;9.59;100.00;102791.88;5002157;28;20048;-78
2024/02/17 10:02:37;;;;;;;36.70;11.23;;;;;;;9.52;100.00;102796.63;4987084;28;20116;-78
2024/02/17 10:05:03;;;;;;;27.00;11.65;;;;;;;9.61;100.00;102802.97;5005628;28;20041;-78
2024/02/17 10:07:29;;;;;;;29.90;12.80;;;;;;;9.54;100.00;102800.78;4986374;28;20062;-77
2024/02/17 10:09:54;;;;;;;30.60;11.25;;;;;;;9.60;100.00;102806.50;4986255;28;20062;-77
2024/02/17 10:12:20;;;;;;;28.27;11.38;;;;;;;9.62;100.00;102802.84;4987274;28;20038;-77
2024/02/17 10:14:51;;;;;;;31.30;10.90;;;;;;;9.64;100.00;102808.75;4982649;28;20042;-78
2024/02/17 10:17:17;;;;;;;29.23;12.38;;;;;;;9.60;100.00;102809.91;4987514;28;20037;-78
2024/02/17 10:19:42;;;;;;;31.60;11.00;;;;;;;9.83;100.00;102803.22;4997561;28;20028;-77
2024/02/17 10:22:08;;;;;;;23.55;11.40;;;;;;;9.84;100.00;102811.81;4982015;28;20042;-78
2024/02/17 10:24:34;;;;;;;27.02;10.50;;;;;;;9.83;100.00;102808.41;5003396;28;20033;-77
2024/02/17 10:26:59;;;;;;;31.90;11.63;;;;;;;9.98;100.00;102805.69;4997731;28;20073;-77
2024/02/17 10:29:25;;;;;;;26.42;11.60;;;;;;;9.94;100.00;102805.94;4989037;28;20041;-78
2024/02/17 10:31:51;;;;;;;24.75;11.25;;;;;;;9.99;100.00;102807.38;4991408;28;20057;-77
2024/02/17 10:34:16;;;;;;;33.92;11.85;;;;;;;10.01;100.00;102810.69;4970670;28;20057;-78
2024/02/17 10:36:42;;;;;;;28.33;11.45;;;;;;;10.02;100.00;102822.69;5003599;28;20030;-78
2024/02/17 10:39:08;;;;;;;32.33;10.82;;;;;;;10.04;100.00;102821.69;5003500;28;20057;-78
2024/02/17 10:41:35;;;;;;;27.70;11.10;;;;;;;9.91;100.00;102832.03;4987554;28;20092;-78
2024/02/17 10:44:05;;;;;;;22.15;10.85;;;;;;;9.95;100.00;102837.84;4989952;28;20029;-77
2024/02/17 10:46:34;;;;;;;24.63;10.70;;;;;;;10.03;100.00;102834.75;5004588;28;20034;-79
2024/02/17 10:49:21;;;;;;;30.75;11.52;;;;;;;9.95;100.00;102835.25;4988319;28;20021;-77
2024/02/17 10:51:57;;;;;;;24.67;10.15;;;;;;;9.95;100.00;102830.06;4981111;28;20050;-78
2024/02/17 10:54:32;;;;;;;34.25;11.02;;;;;;;9.96;100.00;102838.66;4984716;28;20041;-77
2024/02/17 10:57:02;;;;;;;24.75;9.05;;;;;;;9.99;100.00;102841.88;4971460;28;20057;-77
2024/02/17 10:59:29;;;;;;;25.83;11.05;;;;;;;9.95;100.00;102843.03;4987730;28;20113;-77
2024/02/17 11:01:59;;;;;;;23.85;10.48;;;;;;;10.00;100.00;102840.97;5001862;28;20026;-78
2024/02/17 11:04:24;;;;;;;22.98;9.15;;;;;;;10.08;100.00;102845.63;4985517;28;20038;-78
2024/02/17 11:06:51;;;;;;;28.98;10.10;;;;;;;10.13;100.00;102856.50;4986418;28;20049;-78